createdAt,value
2018-03-25T00:02:24.014Z,55.69
2018-03-25T00:04:52.441Z,55.67
2018-03-25T00:07:19.872Z,55.64
2018-03-25T00:09:47.430Z,55.79
2018-03-25T00:12:15.210Z,56.16
2018-03-25T00:14:43.450Z,56.14
2018-03-25T00:17:11.380Z,55.94
2018-03-25T00:19:38.870Z,55.74
2018-03-25T00:22:06.329Z,55.65
2018-03-25T00:24:33.790Z,55.63
2018-03-25T00:27:01.242Z,55.99
2018-03-25T00:29:29.651Z,56.26
2018-03-25T00:31:57.132Z,56.59
2018-03-25T00:34:24.588Z,56.34
2018-03-25T00:36:52.143Z,56.36
2018-03-25T00:39:19.608Z,56.65
2018-03-25T00:41:47.856Z,56.90
2018-03-25T00:44:15.330Z,56.80
2018-03-25T00:46:42.771Z,57.22
2018-03-25T00:49:10.270Z,56.92
2018-03-25T00:51:37.732Z,57.06
2018-03-25T00:54:05.233Z,57.08
2018-03-25T00:56:32.672Z,57.24
2018-03-25T00:59:00.148Z,56.95
2018-03-25T01:01:27.627Z,56.92
2018-03-25T01:03:55.047Z,57.24
2018-03-25T01:06:22.490Z,57.32
2018-03-25T01:08:49.963Z,57.40
2018-03-25T01:11:17.416Z,57.54
2018-03-25T01:13:44.880Z,57.86
2018-03-25T01:16:12.387Z,57.76
2018-03-25T01:18:40.297Z,57.67
2018-03-25T01:21:07.788Z,57.62
2018-03-25T01:23:35.270Z,57.55
2018-03-25T01:26:02.731Z,57.52
2018-03-25T01:28:30.318Z,57.71
2018-03-25T01:30:57.764Z,57.73
2018-03-25T01:33:25.221Z,58.00
2018-03-25T01:35:54.474Z,58.01
2018-03-25T01:38:23.354Z,58.13
2018-03-25T01:40:51.673Z,58.35
2018-03-25T01:43:19.262Z,58.14
2018-03-25T01:45:46.807Z,58.15
2018-03-25T01:48:14.258Z,58.28
2018-03-25T01:50:41.795Z,58.02
2018-03-25T01:53:09.279Z,58.42
2018-03-25T01:55:36.751Z,58.57
2018-03-25T01:58:04.369Z,58.93
2018-03-25T02:00:31.859Z,58.98
2018-03-25T02:02:59.312Z,59.04
2018-03-25T02:05:26.805Z,59.10
2018-03-25T02:07:54.259Z,58.95
2018-03-25T02:10:21.720Z,58.95
2018-03-25T02:12:49.156Z,59.18
2018-03-25T02:15:16.708Z,58.97
2018-03-25T02:17:44.165Z,58.92
2018-03-25T02:20:11.703Z,59.00
2018-03-25T02:22:39.151Z,58.91
2018-03-25T02:25:06.719Z,59.17
2018-03-25T02:27:34.199Z,59.10
2018-03-25T02:30:01.650Z,59.19
2018-03-25T02:32:29.145Z,59.35
2018-03-25T02:34:56.628Z,59.57
2018-03-25T02:37:24.075Z,59.77
2018-03-25T02:39:51.508Z,59.56
2018-03-25T02:42:18.975Z,59.80
2018-03-25T02:44:46.500Z,59.92
2018-03-25T02:47:13.945Z,60.02
2018-03-25T02:49:41.517Z,59.61
2018-03-25T02:52:08.970Z,59.69
2018-03-25T02:54:36.427Z,59.82
2018-03-25T02:57:03.931Z,59.96
2018-03-25T02:59:31.434Z,59.76
2018-03-25T03:01:59.253Z,59.97
2018-03-25T03:04:26.692Z,60.48
2018-03-25T03:06:54.183Z,60.30
2018-03-25T03:09:21.648Z,59.96
2018-03-25T03:11:49.172Z,59.77
2018-03-25T03:14:16.667Z,59.88
2018-03-25T03:16:44.180Z,59.72
2018-03-25T03:19:12.715Z,59.85
2018-03-25T03:21:40.203Z,60.01
2018-03-25T03:24:07.658Z,60.50
2018-03-25T03:26:35.183Z,60.44
2018-03-25T03:29:02.648Z,60.53
2018-03-25T03:31:30.098Z,60.66
2018-03-25T03:33:57.586Z,60.39
2018-03-25T03:36:25.046Z,60.43
2018-03-25T03:38:52.489Z,60.52
2018-03-25T03:41:19.962Z,60.50
2018-03-25T03:43:47.748Z,60.49
2018-03-25T03:46:15.226Z,60.48
2018-03-25T03:48:42.663Z,60.40
2018-03-25T03:51:10.234Z,60.36
2018-03-25T03:53:37.679Z,60.40
2018-03-25T03:56:05.136Z,60.51
2018-03-25T03:58:32.719Z,60.67
2018-03-25T04:01:00.158Z,60.86
2018-03-25T04:03:27.618Z,60.93
2018-03-25T04:05:55.148Z,60.92
2018-03-25T04:08:22.611Z,60.87
2018-03-25T04:10:50.065Z,60.85
2018-03-25T04:13:17.522Z,61.07
2018-03-25T04:15:44.982Z,61.49
2018-03-25T04:18:12.455Z,61.43
2018-03-25T04:20:39.961Z,61.51
2018-03-25T04:23:07.666Z,61.79
2018-03-25T04:25:35.107Z,61.68
2018-03-25T04:28:02.637Z,61.71
2018-03-25T04:30:31.323Z,61.70
2018-03-25T04:32:58.780Z,61.74
2018-03-25T04:35:26.241Z,61.67
2018-03-25T04:37:54.656Z,61.67
2018-03-25T04:40:22.140Z,61.76
2018-03-25T04:42:49.589Z,61.80
2018-03-25T04:45:17.049Z,61.73
2018-03-25T04:47:44.795Z,61.92
2018-03-25T04:50:12.251Z,61.82
2018-03-25T04:52:39.771Z,61.81
2018-03-25T04:55:07.269Z,62.08
2018-03-25T04:57:34.739Z,62.11
2018-03-25T05:00:02.213Z,62.23
2018-03-25T05:02:29.710Z,62.32
2018-03-25T05:04:57.177Z,62.73
2018-03-25T05:07:24.675Z,62.58
2018-03-25T05:09:52.141Z,62.51
2018-03-25T05:12:19.629Z,62.58
2018-03-25T05:14:47.095Z,62.81
2018-03-25T05:17:14.540Z,62.71
2018-03-25T05:19:42.005Z,62.76
2018-03-25T05:22:09.431Z,62.92
2018-03-25T05:24:36.885Z,63.04
2018-03-25T05:27:04.343Z,63.14
2018-03-25T05:29:31.768Z,63.88
2018-03-25T05:31:59.292Z,63.99
2018-03-25T05:34:26.753Z,63.80
2018-03-25T05:36:54.235Z,63.88
2018-03-25T05:39:22.189Z,64.25
2018-03-25T05:41:49.643Z,64.24
2018-03-25T05:44:17.108Z,64.21
2018-03-25T05:46:44.557Z,64.57
2018-03-25T05:49:12.939Z,64.13
2018-03-25T05:51:40.420Z,64.35
2018-03-25T05:54:07.885Z,64.47
2018-03-25T05:56:35.339Z,64.32
2018-03-25T05:59:02.785Z,64.20
2018-03-25T06:01:30.273Z,64.01
2018-03-25T06:03:57.805Z,64.07
2018-03-25T06:06:25.981Z,63.87
2018-03-25T06:08:53.459Z,63.88
2018-03-25T06:11:20.917Z,63.58
2018-03-25T06:13:48.418Z,63.20
2018-03-25T06:16:15.881Z,63.14
2018-03-25T06:18:43.369Z,63.42
2018-03-25T06:21:11.007Z,63.50
2018-03-25T06:23:38.513Z,63.80
2018-03-25T06:26:06.119Z,63.74
2018-03-25T06:28:33.707Z,63.82
2018-03-25T06:31:01.162Z,63.94
2018-03-25T06:33:28.626Z,63.70
2018-03-25T06:35:56.107Z,64.12
2018-03-25T06:38:23.643Z,64.00
2018-03-25T06:40:51.145Z,63.98
2018-03-25T06:43:18.656Z,63.91
2018-03-25T06:45:47.133Z,63.68
2018-03-25T06:48:14.599Z,63.88
2018-03-25T06:50:42.294Z,64.20
2018-03-25T06:53:09.814Z,64.26
2018-03-25T06:55:37.511Z,64.78
2018-03-25T06:58:05.077Z,64.96
2018-03-25T07:00:32.557Z,65.32
2018-03-25T07:03:00.023Z,65.53
2018-03-25T07:05:28.168Z,65.76
2018-03-25T07:07:55.629Z,65.45
2018-03-25T07:10:23.147Z,65.29
2018-03-25T07:12:50.607Z,65.33
2018-03-25T07:15:18.155Z,65.29
2018-03-25T07:17:45.743Z,65.23
2018-03-25T07:20:13.265Z,65.32
2018-03-25T07:22:40.889Z,65.41
2018-03-25T07:25:08.390Z,65.29
2018-03-25T07:27:35.888Z,65.41
2018-03-25T07:30:03.395Z,65.60
2018-03-25T07:32:30.892Z,65.51
2018-03-25T07:34:58.396Z,65.46
2018-03-25T07:37:25.978Z,65.53
2018-03-25T07:39:53.472Z,65.33
2018-03-25T07:42:20.920Z,65.14
2018-03-25T07:44:48.358Z,64.88
2018-03-25T07:47:16.839Z,64.39
2018-03-25T07:49:44.290Z,63.95
2018-03-25T07:52:11.778Z,63.67
2018-03-25T07:54:39.282Z,63.43
2018-03-25T07:57:06.772Z,63.09
2018-03-25T07:59:34.356Z,62.85
2018-03-25T08:02:01.860Z,62.80
2018-03-25T08:04:29.434Z,62.78
2018-03-25T08:06:56.933Z,62.77
2018-03-25T08:09:24.530Z,62.04
2018-03-25T08:11:52.004Z,62.49
2018-03-25T08:14:19.476Z,62.43
2018-03-25T08:16:47.004Z,61.95
2018-03-25T08:19:14.611Z,61.57
2018-03-25T08:21:42.114Z,61.13
2018-03-25T08:24:09.614Z,60.82
2018-03-25T08:26:37.104Z,60.98
2018-03-25T08:29:04.615Z,60.61
2018-03-25T08:31:32.065Z,59.30
2018-03-25T08:33:59.592Z,59.05
2018-03-25T08:36:27.059Z,58.32
2018-03-25T08:38:54.608Z,56.27
2018-03-25T08:41:22.341Z,56.45
2018-03-25T08:43:49.803Z,56.79
2018-03-25T08:46:17.288Z,56.71
2018-03-25T08:48:44.798Z,56.37
2018-03-25T08:51:12.335Z,55.86
2018-03-25T08:53:39.908Z,55.16
2018-03-25T08:56:07.401Z,55.08
2018-03-25T08:58:34.908Z,54.66
2018-03-25T09:01:02.468Z,54.02
2018-03-25T09:03:29.920Z,54.02
2018-03-25T09:05:57.467Z,53.80
2018-03-25T09:08:24.942Z,52.68
2018-03-25T09:19:53.219Z,50.58
2018-03-25T09:22:20.804Z,49.78
2018-03-25T09:24:48.348Z,49.49
2018-03-25T09:27:15.835Z,48.90
2018-03-25T09:29:43.514Z,49.04
2018-03-25T09:32:10.976Z,47.96
2018-03-25T09:34:38.538Z,47.24
2018-03-25T09:37:06.088Z,47.21
2018-03-25T09:39:33.681Z,46.16
2018-03-25T09:42:01.147Z,46.00
2018-03-25T09:44:28.718Z,45.27
2018-03-25T09:46:56.268Z,44.42
2018-03-25T09:49:24.046Z,43.45
2018-03-25T09:51:51.560Z,44.04
2018-03-25T09:54:19.016Z,43.35
2018-03-25T09:56:46.565Z,42.86
2018-03-25T09:59:14.054Z,41.99
2018-03-25T10:01:47.142Z,40.73
2018-03-25T10:04:14.678Z,40.27
2018-03-25T10:06:42.746Z,38.67
2018-03-25T10:09:10.202Z,38.94
2018-03-25T10:11:37.660Z,39.53
2018-03-25T10:14:05.166Z,38.25
2018-03-25T10:16:32.705Z,36.61
2018-03-25T10:19:00.232Z,37.05
2018-03-25T10:21:27.744Z,37.04
2018-03-25T10:23:55.255Z,36.86
2018-03-25T10:26:23.645Z,35.75
2018-03-25T10:28:51.206Z,34.81
2018-03-25T10:31:18.860Z,35.06
2018-03-25T10:33:46.418Z,34.60
2018-03-25T10:36:13.882Z,31.79
2018-03-25T10:38:41.490Z,30.30
2018-03-25T10:41:09.006Z,30.03
2018-03-25T10:43:36.503Z,31.45
2018-03-25T10:46:04.014Z,31.32
2018-03-25T10:48:31.504Z,30.21
2018-03-25T10:50:59.412Z,29.19
2018-03-25T10:53:26.977Z,28.69
2018-03-25T10:55:54.503Z,29.49
2018-03-25T10:58:21.982Z,29.32
2018-03-25T11:00:49.467Z,28.26
2018-03-25T11:03:17.016Z,28.62
2018-03-25T11:05:44.512Z,28.58
2018-03-25T11:08:11.961Z,28.13
2018-03-25T11:10:39.527Z,26.84
2018-03-25T11:13:07.036Z,27.31
2018-03-25T11:15:34.594Z,26.40
2018-03-25T11:18:02.258Z,26.65
2018-03-25T11:20:29.736Z,27.70
2018-03-25T11:22:57.253Z,26.32
2018-03-25T11:25:24.821Z,26.90
2018-03-25T11:27:52.327Z,26.30
2018-03-25T11:30:19.799Z,26.05
2018-03-25T11:32:47.284Z,27.04
2018-03-25T11:35:14.797Z,27.09
2018-03-25T11:37:42.303Z,27.63
2018-03-25T11:40:09.855Z,28.19
2018-03-25T11:42:37.313Z,27.06
2018-03-25T11:45:04.790Z,26.76
2018-03-25T11:47:32.376Z,26.90
2018-03-25T11:49:59.822Z,26.41
2018-03-25T11:52:27.403Z,26.20
2018-03-25T11:54:54.870Z,25.73
2018-03-25T11:57:22.348Z,26.12
2018-03-25T11:59:49.965Z,25.71
2018-03-25T12:02:17.455Z,26.45
2018-03-25T12:04:44.949Z,27.36
2018-03-25T12:07:12.447Z,27.74
2018-03-25T12:09:40.427Z,28.13
2018-03-25T12:12:07.936Z,27.35
2018-03-25T12:14:35.404Z,27.17
2018-03-25T12:17:03.146Z,26.83
2018-03-25T12:19:30.669Z,25.89
2018-03-25T12:21:58.181Z,26.01
2018-03-25T12:24:25.740Z,25.23
2018-03-25T12:26:53.397Z,24.38
2018-03-25T12:29:20.923Z,25.36
2018-03-25T12:31:48.429Z,26.20
2018-03-25T12:34:15.963Z,26.59
2018-03-25T12:36:43.445Z,26.52
2018-03-25T12:39:10.933Z,26.82
2018-03-25T12:41:38.696Z,26.40
2018-03-25T12:44:06.143Z,26.68
2018-03-25T12:46:33.708Z,26.45
2018-03-25T12:49:01.224Z,26.08
2018-03-25T12:51:28.797Z,27.13
2018-03-25T12:53:56.525Z,26.44
2018-03-25T12:56:23.983Z,26.19
2018-03-25T12:58:51.438Z,26.37
2018-03-25T13:01:18.966Z,27.73
2018-03-25T13:03:46.444Z,30.04
2018-03-25T13:06:13.967Z,30.57
2018-03-25T13:08:41.460Z,30.26
2018-03-25T13:17:13.210Z,29.65
2018-03-25T13:19:45.641Z,28.52
2018-03-25T13:22:13.173Z,27.24
2018-03-25T13:24:40.651Z,26.39
2018-03-25T13:27:08.129Z,26.81
2018-03-25T13:29:35.622Z,26.97
2018-03-25T13:32:03.126Z,24.84
2018-03-25T13:34:30.593Z,23.74
2018-03-25T13:36:58.079Z,24.66
2018-03-25T13:39:25.583Z,24.97
2018-03-25T13:41:53.419Z,26.22
2018-03-25T13:44:20.935Z,28.28
2018-03-25T13:46:48.374Z,28.78
2018-03-25T13:49:15.867Z,29.81
2018-03-25T13:51:43.335Z,30.92
2018-03-25T13:54:10.843Z,31.48
2018-03-25T13:56:38.435Z,33.07
2018-03-25T13:59:05.966Z,32.26
2018-03-25T14:01:33.522Z,31.64
2018-03-25T14:04:01.124Z,32.11
2018-03-25T14:06:29.018Z,33.07
2018-03-25T14:08:56.475Z,32.96
2018-03-25T14:11:23.982Z,33.34
2018-03-25T14:13:51.533Z,33.63
2018-03-25T14:16:19.023Z,33.02
2018-03-25T14:18:46.555Z,33.86
2018-03-25T14:21:14.952Z,34.34
2018-03-25T14:23:42.474Z,34.40
2018-03-25T14:26:10.163Z,34.62
2018-03-25T14:28:37.686Z,34.84
2018-03-25T14:31:05.156Z,34.63
2018-03-25T14:33:32.657Z,36.38
2018-03-25T14:36:00.143Z,37.09
2018-03-25T14:38:27.945Z,36.65
2018-03-25T14:40:55.416Z,36.86
2018-03-25T14:43:23.031Z,37.08
2018-03-25T14:45:50.618Z,37.07
2018-03-25T14:48:18.101Z,37.87
2018-03-25T14:50:45.629Z,38.54
2018-03-25T14:53:13.098Z,37.79
2018-03-25T14:55:40.611Z,38.60
2018-03-25T14:58:08.047Z,39.18
2018-03-25T15:00:35.560Z,39.91
2018-03-25T15:03:03.057Z,39.86
2018-03-25T15:05:30.512Z,40.44
2018-03-25T15:07:58.397Z,39.74
2018-03-25T15:10:25.848Z,40.65
2018-03-25T15:12:53.314Z,40.48
2018-03-25T15:15:20.854Z,41.05
2018-03-25T15:17:48.389Z,41.17
2018-03-25T15:20:15.882Z,41.14
2018-03-25T15:22:43.458Z,41.40
2018-03-25T15:25:10.948Z,41.43
2018-03-25T15:27:38.424Z,42.54
2018-03-25T15:32:58.326Z,42.28
2018-03-25T15:35:25.834Z,42.78
2018-03-25T15:37:53.375Z,42.95
2018-03-25T15:40:20.913Z,43.02
2018-03-25T15:42:48.492Z,43.13
2018-03-25T15:45:16.040Z,43.32
2018-03-25T15:47:43.508Z,44.16
2018-03-25T15:50:11.020Z,43.93
2018-03-25T15:52:38.526Z,44.24
2018-03-25T15:55:05.988Z,44.63
2018-03-25T15:57:33.505Z,44.44
2018-03-25T16:00:00.994Z,44.46
2018-03-25T16:02:28.462Z,44.75
2018-03-25T16:04:56.051Z,44.52
2018-03-25T16:07:23.532Z,44.66
2018-03-25T16:09:51.159Z,46.04
2018-03-25T16:12:18.591Z,45.88
2018-03-25T16:14:46.044Z,45.56
2018-03-25T16:17:13.521Z,46.09
2018-03-25T16:19:41.040Z,46.68
2018-03-25T16:22:08.548Z,46.70
2018-03-25T16:24:36.081Z,47.88
2018-03-25T16:27:03.548Z,46.66
2018-03-25T16:29:31.128Z,46.09
2018-03-25T16:31:58.601Z,46.49
2018-03-25T16:34:26.068Z,47.12
2018-03-25T16:36:53.516Z,46.35
2018-03-25T16:39:21.470Z,47.09
2018-03-25T16:41:48.996Z,47.62
2018-03-25T16:44:16.471Z,47.46
2018-03-25T16:46:43.979Z,48.96
2018-03-25T16:49:11.444Z,48.06
2018-03-25T16:51:38.893Z,48.04
2018-03-25T16:54:06.388Z,48.83
2018-03-25T16:56:33.905Z,47.50
2018-03-25T16:59:01.399Z,47.05
2018-03-25T17:01:28.888Z,47.55
2018-03-25T17:03:56.423Z,47.83
2018-03-25T17:06:23.922Z,47.91
2018-03-25T17:08:51.503Z,48.45
2018-03-25T17:11:19.071Z,48.84
2018-03-25T17:13:46.513Z,48.57
2018-03-25T17:16:14.076Z,49.10
2018-03-25T17:18:41.547Z,50.35
2018-03-25T17:21:09.028Z,51.47
2018-03-25T17:23:36.531Z,51.06
2018-03-25T17:26:03.988Z,51.51
2018-03-25T17:28:31.491Z,50.25
2018-03-25T17:30:58.991Z,49.75
2018-03-25T17:33:26.611Z,50.91
2018-03-25T17:35:54.148Z,52.07
2018-03-25T17:38:21.619Z,51.67
2018-03-25T17:40:49.410Z,51.85
2018-03-25T17:43:16.937Z,50.90
2018-03-25T17:45:44.385Z,51.69
2018-03-25T17:48:11.893Z,51.25
2018-03-25T17:50:39.403Z,52.19
2018-03-25T17:53:06.898Z,51.61
2018-03-25T17:55:34.481Z,51.36
2018-03-25T17:58:01.940Z,51.51
2018-03-25T18:00:29.417Z,51.74
2018-03-25T18:02:56.915Z,51.39
2018-03-25T18:05:24.674Z,51.46
2018-03-25T18:07:52.266Z,51.79
2018-03-25T18:10:19.713Z,51.61
2018-03-25T18:12:47.237Z,51.52
2018-03-25T18:15:14.801Z,52.08
2018-03-25T18:17:42.328Z,51.79
2018-03-25T18:20:09.831Z,51.67
2018-03-25T18:22:37.521Z,51.96
2018-03-25T18:25:05.148Z,52.60
2018-03-25T18:27:32.618Z,52.44
2018-03-25T18:30:00.167Z,53.00
2018-03-25T18:32:27.737Z,52.97
2018-03-25T18:34:55.233Z,52.08
2018-03-25T18:37:22.790Z,52.20
2018-03-25T18:39:50.427Z,52.60
2018-03-25T18:42:18.219Z,53.41
2018-03-25T18:44:45.920Z,52.94
2018-03-25T18:47:13.641Z,52.64
2018-03-25T18:49:41.227Z,53.22
2018-03-25T18:52:08.720Z,53.50
2018-03-25T18:54:36.227Z,53.06
2018-03-25T18:57:03.716Z,52.60
2018-03-25T18:59:31.272Z,52.77
2018-03-25T19:01:58.840Z,52.44
2018-03-25T19:04:26.354Z,52.96
2018-03-25T19:06:53.904Z,52.88
2018-03-25T19:09:21.405Z,52.61
2018-03-25T19:11:48.905Z,52.64
2018-03-25T19:14:16.448Z,52.31
2018-03-25T19:16:44.010Z,52.08
2018-03-25T19:19:11.522Z,52.38
2018-03-25T19:21:39.025Z,52.73
2018-03-25T19:24:06.573Z,51.98
2018-03-25T19:26:34.288Z,52.09
2018-03-25T19:29:01.798Z,52.63
2018-03-25T19:31:29.343Z,52.56
2018-03-25T19:33:56.944Z,52.71
2018-03-25T19:36:24.389Z,53.04
2018-03-25T19:38:51.910Z,52.90
2018-03-25T19:41:19.422Z,52.95
2018-03-25T19:43:46.974Z,52.50
2018-03-25T19:46:14.455Z,52.61
2018-03-25T19:48:41.960Z,52.72
2018-03-25T19:51:23.752Z,52.97
2018-03-25T19:53:51.247Z,52.92
2018-03-25T19:56:18.772Z,52.83
2018-03-25T19:58:46.327Z,52.99
2018-03-25T20:01:13.898Z,53.02
2018-03-25T20:03:41.479Z,53.79
2018-03-25T20:06:08.966Z,53.75
2018-03-25T20:08:36.469Z,53.74
2018-03-25T20:11:03.997Z,53.49
2018-03-25T20:13:31.514Z,53.14
2018-03-25T20:15:59.008Z,53.56
2018-03-25T20:18:26.490Z,53.53
2018-03-25T20:20:53.947Z,53.40
2018-03-25T20:23:21.445Z,53.72
2018-03-25T20:25:48.944Z,53.76
2018-03-25T20:28:16.412Z,53.90
2018-03-25T20:30:43.880Z,55.39
2018-03-25T20:33:11.440Z,56.08
2018-03-25T20:35:38.983Z,56.23
2018-03-25T20:38:06.546Z,56.00
2018-03-25T20:40:34.050Z,55.33
2018-03-25T20:43:01.549Z,55.69
2018-03-25T20:45:29.025Z,56.06
2018-03-25T20:47:56.567Z,56.33
2018-03-25T20:50:24.028Z,55.99
2018-03-25T20:52:51.565Z,55.86
2018-03-25T20:55:19.092Z,56.24
2018-03-25T20:57:47.397Z,55.77
2018-03-25T21:00:24.510Z,55.18
2018-03-25T21:02:51.990Z,54.27
2018-03-25T21:05:19.523Z,54.78
2018-03-25T21:07:47.014Z,55.22
2018-03-25T21:10:24.218Z,55.86
2018-03-25T21:12:51.651Z,55.60
2018-03-25T21:15:19.122Z,55.70
2018-03-25T21:17:46.649Z,55.77
2018-03-25T21:20:14.109Z,55.80
2018-03-25T21:22:41.586Z,55.64
2018-03-25T21:25:09.072Z,55.31
2018-03-25T21:27:36.602Z,55.30
2018-03-25T21:30:04.049Z,56.24
2018-03-25T21:32:31.500Z,56.30
2018-03-25T21:34:58.987Z,56.33
2018-03-25T21:37:26.429Z,55.93
2018-03-25T21:39:53.867Z,56.26
2018-03-25T21:42:21.381Z,56.56
2018-03-25T21:44:48.843Z,56.79
2018-03-25T21:47:16.334Z,56.77
2018-03-25T21:49:43.789Z,57.02
2018-03-25T21:52:11.268Z,56.77
2018-03-25T21:54:38.731Z,56.41
2018-03-25T21:57:06.236Z,56.77
2018-03-25T21:59:33.675Z,57.33
2018-03-25T22:02:01.135Z,57.59
2018-03-25T22:04:28.614Z,57.48
2018-03-25T22:06:56.116Z,57.38
2018-03-25T22:09:23.582Z,57.96
2018-03-25T22:11:51.096Z,58.43
2018-03-25T22:14:18.590Z,58.63
2018-03-25T22:16:46.155Z,58.83
2018-03-25T22:19:13.613Z,58.86
2018-03-25T22:21:41.068Z,58.74
2018-03-25T22:24:08.581Z,58.82
2018-03-25T22:26:36.085Z,58.75
2018-03-25T22:29:03.553Z,58.65
2018-03-25T22:31:31.338Z,58.87
2018-03-25T22:33:58.885Z,59.21
2018-03-25T22:36:26.393Z,59.49
2018-03-25T22:38:53.883Z,59.89
2018-03-25T22:41:21.377Z,59.91
2018-03-25T22:43:48.835Z,60.12
2018-03-25T22:46:16.349Z,60.32
2018-03-25T22:48:43.816Z,59.84
2018-03-25T22:51:11.316Z,60.08
2018-03-25T22:53:38.775Z,59.23
2018-03-25T22:56:06.231Z,59.26
2018-03-25T22:58:33.676Z,59.42
2018-03-25T23:01:01.197Z,59.26
2018-03-25T23:03:28.680Z,59.26
2018-03-25T23:05:56.159Z,59.05
2018-03-25T23:08:23.614Z,59.14
2018-03-25T23:10:51.085Z,59.59
2018-03-25T23:13:18.532Z,59.91
2018-03-25T23:15:46.104Z,60.06
2018-03-25T23:18:13.552Z,60.16
2018-03-25T23:20:40.986Z,60.62
2018-03-25T23:23:08.487Z,60.85
2018-03-25T23:25:36.108Z,61.20
2018-03-25T23:28:03.510Z,60.93
2018-03-25T23:30:31.035Z,61.09
2018-03-25T23:32:58.557Z,61.06
2018-03-25T23:35:26.009Z,61.14
2018-03-25T23:37:53.464Z,61.25
2018-03-25T23:40:20.965Z,61.23
2018-03-25T23:42:48.704Z,61.31
2018-03-25T23:45:16.144Z,61.11
2018-03-25T23:47:43.654Z,60.90
2018-03-25T23:50:11.130Z,61.04
2018-03-25T23:52:38.584Z,60.07
2018-03-25T23:55:06.328Z,59.93
2018-03-25T23:57:33.752Z,60.05
